Hartford, Washington
Current Conditions -  °F | °C
As of 9:55 PM on Monday 26 Jan 2015 (Local Time) from KAWO Reporting Station
Clear Clear  
Wind Chill: 43°   Ceiling: Unl
Heat Index: 43°   Visibility: 10mi
Dew Point: 37°   Wind: 3mph
Humidity: 81%   Direction: 110°ESE
Pressure: 29.97"   Gusts: NA
Location:  48.0434°N, 122.062°W
Report Text: KAWO 270555Z AUTO 11003KT 10SM CLR 06/03 A2997 RMK AO1 10190 20060 52007
Loading
Personal Weather Stations






























Interactive Weather Map New forecast layout! Learn more

10-Day Weather Forecast

Advertisements
Track Severe Weather on mobile